Aviation Digital Data Service (ADDS)

Output produced by METARs form (1855 UTC 16 April 2014)
found at http://www.aviationweather.gov/adds/metars/
 
METAR text: EPBY 161830Z 10003KT CAVOK 06/M03 Q1029
Conditions at: EPBY (BYDGOSZDZ , PL) observed 1830 UTC 16 April 2014
Temperature: 6.0°C (43°F)
Dewpoint: -3.0°C (27°F) [RH = 52%]
Pressure (altimeter): 30.38 inches Hg (1029.0 mb)
Winds: from the E (100 degrees) at 3 MPH (3 knots; 1.6 m/s)
Visibility: 6 or more miles (10+ km)
Ceiling: ceiling and visibility are OK
Clouds: unknown
Weather: no significant weather observed at this time

Forecast for: EPBY (BYDGOSZDZ , PL)
Text: TAF EPBY 161730Z 1618/1703 VRB02KT CAVOK
Forecast period: 1800 to 1900 UTC 16 April 2014
Forecast type: FROM: standard forecast or significant change
Winds: variable direction winds at 2 MPH (2 knots; 1.0 m/s)
Visibility: 6 or more miles (10+ km)
Clouds: not forecast
Weather: NSW  (no significant weather)
Text: BECMG 1619/1622 4000 BR
Forecast period: 1900 UTC 16 April 2014 to 0300 UTC 17 April 2014
Forecast type: BECOMING: Conditions expected to become as follows by 2200 UTC 16 April 2014
Winds: variable direction winds at 2 MPH (2 knots; 1.0 m/s)
Visibility: 2.49 miles (4.01 km)
Weather: BR  (mist)